1858 UTC 22 July 2014 found at http://aviationweather.gov/adds/metars/
 
METAR text: KMNH 221852Z AUTO 03004KT 10SM CLR 26/08 A3046 RMK AO2
Conditions at: KMNH (MONUMENT/ELBERT , CO, US) observed 1852 UTC 22 July 2014
Temperature: 26.0°C (79°F)
Dewpoint: 8.0°C (46°F) [RH = 32%]
Pressure (altimeter): 30.46 inches Hg (1031.6 mb)
Winds: from the NNE (30 degrees) at 5 MPH (4 knots; 2.1 m/s)
Visibility: 10 or more miles (16+ km)
Ceiling: at least 12,000 feet AGL
Clouds: sky clear below 12,000 feet AGL
Weather: automated observation with no human augmentation;
there may or may not be significant weather present at this time

METAR text: KMNH 221832Z AUTO 04005KT 10SM CLR 26/08 A3046 RMK AO2
Conditions at: KMNH (MONUMENT/ELBERT , CO, US) observed 1832 UTC 22 July 2014
Temperature: 26.0°C (79°F)
Dewpoint: 8.0°C (46°F) [RH = 32%]
Pressure (altimeter): 30.46 inches Hg (1031.6 mb)
Winds: from the NE (40 degrees) at 6 MPH (5 knots; 2.6 m/s)
Visibility: 10 or more miles (16+ km)
Ceiling: at least 12,000 feet AGL
Clouds: sky clear below 12,000 feet AGL
Weather: automated observation with no human augmentation;
there may or may not be significant weather present at this time

METAR text: KMNH 221813Z AUTO 05006KT 10SM CLR 26/08 A3046 RMK AO2
Conditions at: KMNH (MONUMENT/ELBERT , CO, US) observed 1813 UTC 22 July 2014
Temperature: 26.0°C (79°F)
Dewpoint: 8.0°C (46°F) [RH = 32%]
Pressure (altimeter): 30.46 inches Hg (1031.6 mb)
Winds: from the NE (50 degrees) at 7 MPH (6 knots; 3.1 m/s)
Visibility: 10 or more miles (16+ km)
Ceiling: at least 12,000 feet AGL
Clouds: sky clear below 12,000 feet AGL
Weather: automated observation with no human augmentation;
there may or may not be significant weather present at this time

METAR text: KMNH 221753Z AUTO 02009KT 10SM CLR 25/08 A3046 RMK AO2
Conditions at: KMNH (MONUMENT/ELBERT , CO, US) observed 1753 UTC 22 July 2014
Temperature: 25.0°C (77°F)
Dewpoint: 8.0°C (46°F) [RH = 34%]
Pressure (altimeter): 30.46 inches Hg (1031.6 mb)
Winds: from the NNE (20 degrees) at 10 MPH (9 knots; 4.7 m/s)
Visibility: 10 or more miles (16+ km)
Ceiling: at least 12,000 feet AGL
Clouds: sky clear below 12,000 feet AGL
Weather: automated observation with no human augmentation;
there may or may not be significant weather present at this time

METAR text: KMNH 221732Z AUTO 02006KT 10SM CLR 24/08 A3046 RMK AO2
Conditions at: KMNH (MONUMENT/ELBERT , CO, US) observed 1732 UTC 22 July 2014
Temperature: 24.0°C (75°F)
Dewpoint: 8.0°C (46°F) [RH = 36%]
Pressure (altimeter): 30.46 inches Hg (1031.6 mb)
Winds: from the NNE (20 degrees) at 7 MPH (6 knots; 3.1 m/s)
Visibility: 10 or more miles (16+ km)
Ceiling: at least 12,000 feet AGL
Clouds: sky clear below 12,000 feet AGL
Weather: automated observation with no human augmentation;
there may or may not be significant weather present at this time

METAR text: KMNH 221712Z AUTO 03006KT 10SM CLR 24/08 A3046 RMK AO2
Conditions at: KMNH (MONUMENT/ELBERT , CO, US) observed 1712 UTC 22 July 2014
Temperature: 24.0°C (75°F)
Dewpoint: 8.0°C (46°F) [RH = 36%]
Pressure (altimeter): 30.46 inches Hg (1031.6 mb)
Winds: from the NNE (30 degrees) at 7 MPH (6 knots; 3.1 m/s)
Visibility: 10 or more miles (16+ km)
Ceiling: at least 12,000 feet AGL
Clouds: sky clear below 12,000 feet AGL
Weather: automated observation with no human augmentation;
there may or may not be significant weather present at this time

METAR text: KMNH 221653Z AUTO 03010G14KT 10SM CLR 24/08 A3046 RMK AO2
Conditions at: KMNH (MONUMENT/ELBERT , CO, US) observed 1653 UTC 22 July 2014
Temperature: 24.0°C (75°F)
Dewpoint: 8.0°C (46°F) [RH = 36%]
Pressure (altimeter): 30.46 inches Hg (1031.6 mb)
Winds: from the NNE (30 degrees) at 12 MPH (10 knots; 5.2 m/sgusting to 16 MPH (14 knots; 7.3 m/s)
Visibility: 10 or more miles (16+ km)
Ceiling: at least 12,000 feet AGL
Clouds: sky clear below 12,000 feet AGL
Weather: automated observation with no human augmentation;
there may or may not be significant weather present at this time

METAR text: KMNH 221633Z AUTO 35008G14KT 10SM CLR 24/07 A3046 RMK AO2
Conditions at: KMNH (MONUMENT/ELBERT , CO, US) observed 1633 UTC 22 July 2014
Temperature: 24.0°C (75°F)
Dewpoint: 7.0°C (45°F) [RH = 34%]
Pressure (altimeter): 30.46 inches Hg (1031.6 mb)
Winds: from the N (350 degrees) at 9 MPH (8 knots; 4.2 m/sgusting to 16 MPH (14 knots; 7.3 m/s)
Visibility: 10 or more miles (16+ km)
Ceiling: at least 12,000 feet AGL
Clouds: sky clear below 12,000 feet AGL
Weather: automated observation with no human augmentation;
there may or may not be significant weather present at this time

METAR text: KMNH 221613Z AUTO 35012KT 10SM CLR 23/06 A3046 RMK AO2
Conditions at: KMNH (MONUMENT/ELBERT , CO, US) observed 1613 UTC 22 July 2014
Temperature: 23.0°C (73°F)
Dewpoint: 6.0°C (43°F) [RH = 33%]
Pressure (altimeter): 30.46 inches Hg (1031.6 mb)
Winds: from the N (350 degrees) at 14 MPH (12 knots; 6.2 m/s)
Visibility: 10 or more miles (16+ km)
Ceiling: at least 12,000 feet AGL
Clouds: sky clear below 12,000 feet AGL
Weather: automated observation with no human augmentation;
there may or may not be significant weather present at this time

METAR text: KMNH 221553Z AUTO 33010KT 10SM CLR 23/06 A3044 RMK AO2
Conditions at: KMNH (MONUMENT/ELBERT , CO, US) observed 1553 UTC 22 July 2014
Temperature: 23.0°C (73°F)
Dewpoint: 6.0°C (43°F) [RH = 33%]
Pressure (altimeter): 30.44 inches Hg (1030.9 mb)
Winds: from the NNW (330 degrees) at 12 MPH (10 knots; 5.2 m/s)
Visibility: 10 or more miles (16+ km)
Ceiling: at least 12,000 feet AGL
Clouds: sky clear below 12,000 feet AGL
Weather: automated observation with no human augmentation;
there may or may not be significant weather present at this time

METAR text: KMNH 221533Z AUTO 32009KT 10SM CLR 23/05 A3044 RMK AO2
Conditions at: KMNH (MONUMENT/ELBERT , CO, US) observed 1533 UTC 22 July 2014
Temperature: 23.0°C (73°F)
Dewpoint: 5.0°C (41°F) [RH = 31%]
Pressure (altimeter): 30.44 inches Hg (1030.9 mb)
Winds: from the NW (320 degrees) at 10 MPH (9 knots; 4.7 m/s)
Visibility: 10 or more miles (16+ km)
Ceiling: at least 12,000 feet AGL
Clouds: sky clear below 12,000 feet AGL
Weather: automated observation with no human augmentation;
there may or may not be significant weather present at this time

METAR text: KMNH 221513Z AUTO 31011KT 10SM CLR 22/05 A3044 RMK AO2
Conditions at: KMNH (MONUMENT/ELBERT , CO, US) observed 1513 UTC 22 July 2014
Temperature: 22.0°C (72°F)
Dewpoint: 5.0°C (41°F) [RH = 33%]
Pressure (altimeter): 30.44 inches Hg (1030.9 mb)
Winds: from the NW (310 degrees) at 13 MPH (11 knots; 5.7 m/s)
Visibility: 10 or more miles (16+ km)
Ceiling: at least 12,000 feet AGL
Clouds: sky clear below 12,000 feet AGL
Weather: automated observation with no human augmentation;
there may or may not be significant weather present at this time

METAR text: KMNH 221453Z AUTO 31012KT 10SM CLR 22/05 A3043 RMK AO2
Conditions at: KMNH (MONUMENT/ELBERT , CO, US) observed 1453 UTC 22 July 2014
Temperature: 22.0°C (72°F)
Dewpoint: 5.0°C (41°F) [RH = 33%]
Pressure (altimeter): 30.43 inches Hg (1030.6 mb)
Winds: from the NW (310 degrees) at 14 MPH (12 knots; 6.2 m/s)
Visibility: 10 or more miles (16+ km)
Ceiling: at least 12,000 feet AGL
Clouds: sky clear below 12,000 feet AGL
Weather: automated observation with no human augmentation;
there may or may not be significant weather present at this time

METAR text: KMNH 221433Z AUTO 30010KT 10SM CLR 22/05 A3042 RMK AO2
Conditions at: KMNH (MONUMENT/ELBERT , CO, US) observed 1433 UTC 22 July 2014
Temperature: 22.0°C (72°F)
Dewpoint: 5.0°C (41°F) [RH = 33%]
Pressure (altimeter): 30.42 inches Hg (1030.2 mb)
Winds: from the WNW (300 degrees) at 12 MPH (10 knots; 5.2 m/s)
Visibility: 10 or more miles (16+ km)
Ceiling: at least 12,000 feet AGL
Clouds: sky clear below 12,000 feet AGL
Weather: automated observation with no human augmentation;
there may or may not be significant weather present at this time

METAR text: KMNH 221412Z AUTO 31006KT 10SM CLR 22/06 A3041 RMK AO2
Conditions at: KMNH (MONUMENT/ELBERT , CO, US) observed 1412 UTC 22 July 2014
Temperature: 22.0°C (72°F)
Dewpoint: 6.0°C (43°F) [RH = 35%]
Pressure (altimeter): 30.41 inches Hg (1029.9 mb)
Winds: from the NW (310 degrees) at 7 MPH (6 knots; 3.1 m/s)
Visibility: 10 or more miles (16+ km)
Ceiling: at least 12,000 feet AGL
Clouds: sky clear below 12,000 feet AGL
Weather: automated observation with no human augmentation;
there may or may not be significant weather present at this time

METAR text: KMNH 221352Z AUTO 28005KT 10SM CLR 22/07 A3040 RMK AO2
Conditions at: KMNH (MONUMENT/ELBERT , CO, US) observed 1352 UTC 22 July 2014
Temperature: 22.0°C (72°F)
Dewpoint: 7.0°C (45°F) [RH = 38%]
Pressure (altimeter): 30.40 inches Hg (1029.5 mb)
Winds: from the W (280 degrees) at 6 MPH (5 knots; 2.6 m/s)
Visibility: 10 or more miles (16+ km)
Ceiling: at least 12,000 feet AGL
Clouds: sky clear below 12,000 feet AGL
Weather: automated observation with no human augmentation;
there may or may not be significant weather present at this time

METAR text: KMNH 221333Z AUTO 27005KT 10SM CLR 22/06 A3039 RMK AO2
Conditions at: KMNH (MONUMENT/ELBERT , CO, US) observed 1333 UTC 22 July 2014
Temperature: 22.0°C (72°F)
Dewpoint: 6.0°C (43°F) [RH = 35%]
Pressure (altimeter): 30.39 inches Hg (1029.2 mb)
Winds: from the W (270 degrees) at 6 MPH (5 knots; 2.6 m/s)
Visibility: 10 or more miles (16+ km)
Ceiling: at least 12,000 feet AGL
Clouds: sky clear below 12,000 feet AGL
Weather: automated observation with no human augmentation;
there may or may not be significant weather present at this time

METAR text: KMNH 221313Z AUTO 26006KT 10SM CLR 18/09 A3039 RMK AO2
Conditions at: KMNH (MONUMENT/ELBERT , CO, US) observed 1313 UTC 22 July 2014
Temperature: 18.0°C (64°F)
Dewpoint: 9.0°C (48°F) [RH = 56%]
Pressure (altimeter): 30.39 inches Hg (1029.2 mb)
Winds: from the W (260 degrees) at 7 MPH (6 knots; 3.1 m/s)
Visibility: 10 or more miles (16+ km)
Ceiling: at least 12,000 feet AGL
Clouds: sky clear below 12,000 feet AGL
Weather: automated observation with no human augmentation;
there may or may not be significant weather present at this time

METAR text: KMNH 221253Z AUTO 20004KT 10SM CLR 16/08 A3039 RMK AO2
Conditions at: KMNH (MONUMENT/ELBERT , CO, US) observed 1253 UTC 22 July 2014
Temperature: 16.0°C (61°F)
Dewpoint: 8.0°C (46°F) [RH = 59%]
Pressure (altimeter): 30.39 inches Hg (1029.2 mb)
Winds: from the SSW (200 degrees) at 5 MPH (4 knots; 2.1 m/s)
Visibility: 10 or more miles (16+ km)
Ceiling: at least 12,000 feet AGL
Clouds: sky clear below 12,000 feet AGL
Weather: automated observation with no human augmentation;
there may or may not be significant weather present at this time

METAR text: KMNH 221233Z AUTO 16005KT 10SM CLR 15/08 A3038 RMK AO2
Conditions at: KMNH (MONUMENT/ELBERT , CO, US) observed 1233 UTC 22 July 2014
Temperature: 15.0°C (59°F)
Dewpoint: 8.0°C (46°F) [RH = 63%]
Pressure (altimeter): 30.38 inches Hg (1028.9 mb)
Winds: from the SSE (160 degrees) at 6 MPH (5 knots; 2.6 m/s)
Visibility: 10 or more miles (16+ km)
Ceiling: at least 12,000 feet AGL
Clouds: sky clear below 12,000 feet AGL
Weather: automated observation with no human augmentation;
there may or may not be significant weather present at this time

METAR text: KMNH 221213Z AUTO 24010KT 10SM CLR 15/07 A3037 RMK AO2
Conditions at: KMNH (MONUMENT/ELBERT , CO, US) observed 1213 UTC 22 July 2014
Temperature: 15.0°C (59°F)
Dewpoint: 7.0°C (45°F) [RH = 59%]
Pressure (altimeter): 30.37 inches Hg (1028.5 mb)
Winds: from the WSW (240 degrees) at 12 MPH (10 knots; 5.2 m/s)
Visibility: 10 or more miles (16+ km)
Ceiling: at least 12,000 feet AGL
Clouds: sky clear below 12,000 feet AGL
Weather: automated observation with no human augmentation;
there may or may not be significant weather present at this time

METAR text: KMNH 221153Z AUTO 23009KT 10SM CLR 15/07 A3037 RMK AO2
Conditions at: KMNH (MONUMENT/ELBERT , CO, US) observed 1153 UTC 22 July 2014
Temperature: 15.0°C (59°F)
Dewpoint: 7.0°C (45°F) [RH = 59%]
Pressure (altimeter): 30.37 inches Hg (1028.5 mb)
Winds: from the SW (230 degrees) at 10 MPH (9 knots; 4.7 m/s)
Visibility: 10 or more miles (16+ km)
Ceiling: at least 12,000 feet AGL
Clouds: sky clear below 12,000 feet AGL
Weather: automated observation with no human augmentation;
there may or may not be significant weather present at this time

METAR text: KMNH 221132Z AUTO 22010KT 10SM CLR 15/07 A3036 RMK AO2
Conditions at: KMNH (MONUMENT/ELBERT , CO, US) observed 1132 UTC 22 July 2014
Temperature: 15.0°C (59°F)
Dewpoint: 7.0°C (45°F) [RH = 59%]
Pressure (altimeter): 30.36 inches Hg (1028.2 mb)
Winds: from the SW (220 degrees) at 12 MPH (10 knots; 5.2 m/s)
Visibility: 10 or more miles (16+ km)
Ceiling: at least 12,000 feet AGL
Clouds: sky clear below 12,000 feet AGL
Weather: automated observation with no human augmentation;
there may or may not be significant weather present at this time

METAR text: KMNH 221113Z AUTO 22007KT 10SM CLR 16/07 A3036 RMK AO2
Conditions at: KMNH (MONUMENT/ELBERT , CO, US) observed 1113 UTC 22 July 2014
Temperature: 16.0°C (61°F)
Dewpoint: 7.0°C (45°F) [RH = 55%]
Pressure (altimeter): 30.36 inches Hg (1028.2 mb)
Winds: from the SW (220 degrees) at 8 MPH (7 knots; 3.6 m/s)
Visibility: 10 or more miles (16+ km)
Ceiling: at least 12,000 feet AGL
Clouds: sky clear below 12,000 feet AGL
Weather: automated observation with no human augmentation;
there may or may not be significant weather present at this time

METAR text: KMNH 221052Z AUTO 23008KT 10SM CLR 14/07 A3036 RMK AO2
Conditions at: KMNH (MONUMENT/ELBERT , CO, US) observed 1052 UTC 22 July 2014
Temperature: 14.0°C (57°F)
Dewpoint: 7.0°C (45°F) [RH = 63%]
Pressure (altimeter): 30.36 inches Hg (1028.2 mb)
Winds: from the SW (230 degrees) at 9 MPH (8 knots; 4.2 m/s)
Visibility: 10 or more miles (16+ km)
Ceiling: at least 12,000 feet AGL
Clouds: sky clear below 12,000 feet AGL
Weather: automated observation with no human augmentation;
there may or may not be significant weather present at this time

METAR text: KMNH 221032Z AUTO 23007KT 10SM CLR 14/06 A3036 RMK AO2
Conditions at: KMNH (MONUMENT/ELBERT , CO, US) observed 1032 UTC 22 July 2014
Temperature: 14.0°C (57°F)
Dewpoint: 6.0°C (43°F) [RH = 58%]
Pressure (altimeter): 30.36 inches Hg (1028.2 mb)
Winds: from the SW (230 degrees) at 8 MPH (7 knots; 3.6 m/s)
Visibility: 10 or more miles (16+ km)
Ceiling: at least 12,000 feet AGL
Clouds: sky clear below 12,000 feet AGL
Weather: automated observation with no human augmentation;
there may or may not be significant weather present at this time

METAR text: KMNH 221013Z AUTO 20007KT 10SM CLR 15/06 A3035 RMK AO2
Conditions at: KMNH (MONUMENT/ELBERT , CO, US) observed 1013 UTC 22 July 2014
Temperature: 15.0°C (59°F)
Dewpoint: 6.0°C (43°F) [RH = 55%]
Pressure (altimeter): 30.35 inches Hg (1027.9 mb)
Winds: from the SSW (200 degrees) at 8 MPH (7 knots; 3.6 m/s)
Visibility: 10 or more miles (16+ km)
Ceiling: at least 12,000 feet AGL
Clouds: sky clear below 12,000 feet AGL
Weather: automated observation with no human augmentation;
there may or may not be significant weather present at this time

METAR text: KMNH 220953Z AUTO 19009KT 10SM CLR 15/06 A3035 RMK AO2
Conditions at: KMNH (MONUMENT/ELBERT , CO, US) observed 0953 UTC 22 July 2014
Temperature: 15.0°C (59°F)
Dewpoint: 6.0°C (43°F) [RH = 55%]
Pressure (altimeter): 30.35 inches Hg (1027.9 mb)
Winds: from the S (190 degrees) at 10 MPH (9 knots; 4.7 m/s)
Visibility: 10 or more miles (16+ km)
Ceiling: at least 12,000 feet AGL
Clouds: sky clear below 12,000 feet AGL
Weather: automated observation with no human augmentation;
there may or may not be significant weather present at this time

METAR text: KMNH 220933Z AUTO 19005KT 10SM CLR 14/06 A3035 RMK AO2
Conditions at: KMNH (MONUMENT/ELBERT , CO, US) observed 0933 UTC 22 July 2014
Temperature: 14.0°C (57°F)
Dewpoint: 6.0°C (43°F) [RH = 58%]
Pressure (altimeter): 30.35 inches Hg (1027.9 mb)
Winds: from the S (190 degrees) at 6 MPH (5 knots; 2.6 m/s)
Visibility: 10 or more miles (16+ km)
Ceiling: at least 12,000 feet AGL
Clouds: sky clear below 12,000 feet AGL
Weather: automated observation with no human augmentation;
there may or may not be significant weather present at this time

METAR text: KMNH 220913Z AUTO 25005KT 10SM CLR 13/06 A3034 RMK AO2
Conditions at: KMNH (MONUMENT/ELBERT , CO, US) observed 0913 UTC 22 July 2014
Temperature: 13.0°C (55°F)
Dewpoint: 6.0°C (43°F) [RH = 62%]
Pressure (altimeter): 30.34 inches Hg (1027.5 mb)
Winds: from the WSW (250 degrees) at 6 MPH (5 knots; 2.6 m/s)
Visibility: 10 or more miles (16+ km)
Ceiling: at least 12,000 feet AGL
Clouds: sky clear below 12,000 feet AGL
Weather: automated observation with no human augmentation;
there may or may not be significant weather present at this time

METAR text: KMNH 220853Z AUTO 22003KT 10SM CLR 15/06 A3034 RMK AO2
Conditions at: KMNH (MONUMENT/ELBERT , CO, US) observed 0853 UTC 22 July 2014
Temperature: 15.0°C (59°F)
Dewpoint: 6.0°C (43°F) [RH = 55%]
Pressure (altimeter): 30.34 inches Hg (1027.5 mb)
Winds: from the SW (220 degrees) at 3 MPH (3 knots; 1.6 m/s)
Visibility: 10 or more miles (16+ km)
Ceiling: at least 12,000 feet AGL
Clouds: sky clear below 12,000 feet AGL
Weather: automated observation with no human augmentation;
there may or may not be significant weather present at this time

METAR text: KMNH 220833Z AUTO 28006KT 10SM CLR 15/06 A3034 RMK AO2
Conditions at: KMNH (MONUMENT/ELBERT , CO, US) observed 0833 UTC 22 July 2014
Temperature: 15.0°C (59°F)
Dewpoint: 6.0°C (43°F) [RH = 55%]
Pressure (altimeter): 30.34 inches Hg (1027.5 mb)
Winds: from the W (280 degrees) at 7 MPH (6 knots; 3.1 m/s)
Visibility: 10 or more miles (16+ km)
Ceiling: at least 12,000 feet AGL
Clouds: sky clear below 12,000 feet AGL
Weather: automated observation with no human augmentation;
there may or may not be significant weather present at this time

METAR text: KMNH 220813Z AUTO 28009KT 10SM CLR 15/06 A3033 RMK AO2
Conditions at: KMNH (MONUMENT/ELBERT , CO, US) observed 0813 UTC 22 July 2014
Temperature: 15.0°C (59°F)
Dewpoint: 6.0°C (43°F) [RH = 55%]
Pressure (altimeter): 30.33 inches Hg (1027.2 mb)
Winds: from the W (280 degrees) at 10 MPH (9 knots; 4.7 m/s)
Visibility: 10 or more miles (16+ km)
Ceiling: at least 12,000 feet AGL
Clouds: sky clear below 12,000 feet AGL
Weather: automated observation with no human augmentation;
there may or may not be significant weather present at this time

METAR text: KMNH 220753Z AUTO 24006KT 10SM CLR 15/06 A3033 RMK AO2
Conditions at: KMNH (MONUMENT/ELBERT , CO, US) observed 0753 UTC 22 July 2014
Temperature: 15.0°C (59°F)
Dewpoint: 6.0°C (43°F) [RH = 55%]
Pressure (altimeter): 30.33 inches Hg (1027.2 mb)
Winds: from the WSW (240 degrees) at 7 MPH (6 knots; 3.1 m/s)
Visibility: 10 or more miles (16+ km)
Ceiling: at least 12,000 feet AGL
Clouds: sky clear below 12,000 feet AGL
Weather: automated observation with no human augmentation;
there may or may not be significant weather present at this time

METAR text: KMNH 220732Z AUTO 19008KT 10SM CLR 15/06 A3033 RMK AO2
Conditions at: KMNH (MONUMENT/ELBERT , CO, US) observed 0732 UTC 22 July 2014
Temperature: 15.0°C (59°F)
Dewpoint: 6.0°C (43°F) [RH = 55%]
Pressure (altimeter): 30.33 inches Hg (1027.2 mb)
Winds: from the S (190 degrees) at 9 MPH (8 knots; 4.2 m/s)
Visibility: 10 or more miles (16+ km)
Ceiling: at least 12,000 feet AGL
Clouds: sky clear below 12,000 feet AGL
Weather: automated observation with no human augmentation;
there may or may not be significant weather present at this time

METAR text: KMNH 220711Z AUTO 19008KT 10SM CLR 14/06 A3033 RMK AO2
Conditions at: KMNH (MONUMENT/ELBERT , CO, US) observed 0711 UTC 22 July 2014
Temperature: 14.0°C (57°F)
Dewpoint: 6.0°C (43°F) [RH = 58%]
Pressure (altimeter): 30.33 inches Hg (1027.2 mb)
Winds: from the S (190 degrees) at 9 MPH (8 knots; 4.2 m/s)
Visibility: 10 or more miles (16+ km)
Ceiling: at least 12,000 feet AGL
Clouds: sky clear below 12,000 feet AGL
Weather: automated observation with no human augmentation;
there may or may not be significant weather present at this time

METAR text: KMNH 220653Z AUTO 20006KT 10SM CLR 14/07 A3034 RMK AO2
Conditions at: KMNH (MONUMENT/ELBERT , CO, US) observed 0653 UTC 22 July 2014
Temperature: 14.0°C (57°F)
Dewpoint: 7.0°C (45°F) [RH = 63%]
Pressure (altimeter): 30.34 inches Hg (1027.5 mb)
Winds: from the SSW (200 degrees) at 7 MPH (6 knots; 3.1 m/s)
Visibility: 10 or more miles (16+ km)
Ceiling: at least 12,000 feet AGL
Clouds: sky clear below 12,000 feet AGL
Weather: automated observation with no human augmentation;
there may or may not be significant weather present at this time

METAR text: KMNH 220633Z AUTO 20007KT 10SM CLR 16/07 A3034 RMK AO2
Conditions at: KMNH (MONUMENT/ELBERT , CO, US) observed 0633 UTC 22 July 2014
Temperature: 16.0°C (61°F)
Dewpoint: 7.0°C (45°F) [RH = 55%]
Pressure (altimeter): 30.34 inches Hg (1027.5 mb)
Winds: from the SSW (200 degrees) at 8 MPH (7 knots; 3.6 m/s)
Visibility: 10 or more miles (16+ km)
Ceiling: at least 12,000 feet AGL
Clouds: sky clear below 12,000 feet AGL
Weather: automated observation with no human augmentation;
there may or may not be significant weather present at this time

METAR text: KMNH 220613Z AUTO 21007KT 10SM CLR 16/06 A3034 RMK AO2
Conditions at: KMNH (MONUMENT/ELBERT , CO, US) observed 0613 UTC 22 July 2014
Temperature: 16.0°C (61°F)
Dewpoint: 6.0°C (43°F) [RH = 51%]
Pressure (altimeter): 30.34 inches Hg (1027.5 mb)
Winds: from the SSW (210 degrees) at 8 MPH (7 knots; 3.6 m/s)
Visibility: 10 or more miles (16+ km)
Ceiling: at least 12,000 feet AGL
Clouds: sky clear below 12,000 feet AGL
Weather: automated observation with no human augmentation;
there may or may not be significant weather present at this time

METAR text: KMNH 220554Z AUTO 21007KT 10SM CLR 16/06 A3034 RMK AO2
Conditions at: KMNH (MONUMENT/ELBERT , CO, US) observed 0554 UTC 22 July 2014
Temperature: 16.0°C (61°F)
Dewpoint: 6.0°C (43°F) [RH = 51%]
Pressure (altimeter): 30.34 inches Hg (1027.5 mb)
Winds: from the SSW (210 degrees) at 8 MPH (7 knots; 3.6 m/s)
Visibility: 10 or more miles (16+ km)
Ceiling: at least 12,000 feet AGL
Clouds: sky clear below 12,000 feet AGL
Weather: automated observation with no human augmentation;
there may or may not be significant weather present at this time

METAR text: KMNH 220533Z AUTO 20006KT 10SM CLR 16/06 A3033 RMK AO2
Conditions at: KMNH (MONUMENT/ELBERT , CO, US) observed 0533 UTC 22 July 2014
Temperature: 16.0°C (61°F)
Dewpoint: 6.0°C (43°F) [RH = 51%]
Pressure (altimeter): 30.33 inches Hg (1027.2 mb)
Winds: from the SSW (200 degrees) at 7 MPH (6 knots; 3.1 m/s)
Visibility: 10 or more miles (16+ km)
Ceiling: at least 12,000 feet AGL
Clouds: sky clear below 12,000 feet AGL
Weather: automated observation with no human augmentation;
there may or may not be significant weather present at this time

METAR text: KMNH 220513Z AUTO 21006KT 10SM CLR 16/07 A3033 RMK AO2
Conditions at: KMNH (MONUMENT/ELBERT , CO, US) observed 0513 UTC 22 July 2014
Temperature: 16.0°C (61°F)
Dewpoint: 7.0°C (45°F) [RH = 55%]
Pressure (altimeter): 30.33 inches Hg (1027.2 mb)
Winds: from the SSW (210 degrees) at 7 MPH (6 knots; 3.1 m/s)
Visibility: 10 or more miles (16+ km)
Ceiling: at least 12,000 feet AGL
Clouds: sky clear below 12,000 feet AGL
Weather: automated observation with no human augmentation;
there may or may not be significant weather present at this time

METAR text: KMNH 220454Z AUTO 21006KT 10SM CLR 17/06 A3032 RMK AO2
Conditions at: KMNH (MONUMENT/ELBERT , CO, US) observed 0454 UTC 22 July 2014
Temperature: 17.0°C (63°F)
Dewpoint: 6.0°C (43°F) [RH = 48%]
Pressure (altimeter): 30.32 inches Hg (1026.8 mb)
Winds: from the SSW (210 degrees) at 7 MPH (6 knots; 3.1 m/s)
Visibility: 10 or more miles (16+ km)
Ceiling: at least 12,000 feet AGL
Clouds: sky clear below 12,000 feet AGL
Weather: automated observation with no human augmentation;
there may or may not be significant weather present at this time

METAR text: KMNH 220434Z AUTO 22006KT 10SM CLR 17/07 A3032 RMK AO2
Conditions at: KMNH (MONUMENT/ELBERT , CO, US) observed 0434 UTC 22 July 2014
Temperature: 17.0°C (63°F)
Dewpoint: 7.0°C (45°F) [RH = 52%]
Pressure (altimeter): 30.32 inches Hg (1026.8 mb)
Winds: from the SW (220 degrees) at 7 MPH (6 knots; 3.1 m/s)
Visibility: 10 or more miles (16+ km)
Ceiling: at least 12,000 feet AGL
Clouds: sky clear below 12,000 feet AGL
Weather: automated observation with no human augmentation;
there may or may not be significant weather present at this time

METAR text: KMNH 220414Z AUTO 21006KT 10SM CLR 17/07 A3032 RMK AO2
Conditions at: KMNH (MONUMENT/ELBERT , CO, US) observed 0414 UTC 22 July 2014
Temperature: 17.0°C (63°F)
Dewpoint: 7.0°C (45°F) [RH = 52%]
Pressure (altimeter): 30.32 inches Hg (1026.8 mb)
Winds: from the SSW (210 degrees) at 7 MPH (6 knots; 3.1 m/s)
Visibility: 10 or more miles (16+ km)
Ceiling: at least 12,000 feet AGL
Clouds: sky clear below 12,000 feet AGL
Weather: automated observation with no human augmentation;
there may or may not be significant weather present at this time

METAR text: KMNH 220353Z AUTO 20007KT 10SM CLR 18/07 A3031 RMK AO2
Conditions at: KMNH (MONUMENT/ELBERT , CO, US) observed 0353 UTC 22 July 2014
Temperature: 18.0°C (64°F)
Dewpoint: 7.0°C (45°F) [RH = 49%]
Pressure (altimeter): 30.31 inches Hg (1026.5 mb)
Winds: from the SSW (200 degrees) at 8 MPH (7 knots; 3.6 m/s)
Visibility: 10 or more miles (16+ km)
Ceiling: at least 12,000 feet AGL
Clouds: sky clear below 12,000 feet AGL
Weather: automated observation with no human augmentation;
there may or may not be significant weather present at this time

METAR text: KMNH 220333Z AUTO 21006KT 10SM CLR 17/07 A3030 RMK AO2
Conditions at: KMNH (MONUMENT/ELBERT , CO, US) observed 0333 UTC 22 July 2014
Temperature: 17.0°C (63°F)
Dewpoint: 7.0°C (45°F) [RH = 52%]
Pressure (altimeter): 30.30 inches Hg (1026.2 mb)
Winds: from the SSW (210 degrees) at 7 MPH (6 knots; 3.1 m/s)
Visibility: 10 or more miles (16+ km)
Ceiling: at least 12,000 feet AGL
Clouds: sky clear below 12,000 feet AGL
Weather: automated observation with no human augmentation;
there may or may not be significant weather present at this time

METAR text: KMNH 220312Z AUTO 21006KT 10SM CLR 18/07 A3030 RMK AO2
Conditions at: KMNH (MONUMENT/ELBERT , CO, US) observed 0312 UTC 22 July 2014
Temperature: 18.0°C (64°F)
Dewpoint: 7.0°C (45°F) [RH = 49%]
Pressure (altimeter): 30.30 inches Hg (1026.2 mb)
Winds: from the SSW (210 degrees) at 7 MPH (6 knots; 3.1 m/s)
Visibility: 10 or more miles (16+ km)
Ceiling: at least 12,000 feet AGL
Clouds: sky clear below 12,000 feet AGL
Weather: automated observation with no human augmentation;
there may or may not be significant weather present at this time

METAR text: KMNH 220253Z AUTO 20008KT 10SM CLR 19/06 A3029 RMK AO2
Conditions at: KMNH (MONUMENT/ELBERT , CO, US) observed 0253 UTC 22 July 2014
Temperature: 19.0°C (66°F)
Dewpoint: 6.0°C (43°F) [RH = 43%]
Pressure (altimeter): 30.29 inches Hg (1025.8 mb)
Winds: from the SSW (200 degrees) at 9 MPH (8 knots; 4.2 m/s)
Visibility: 10 or more miles (16+ km)
Ceiling: at least 12,000 feet AGL
Clouds: sky clear below 12,000 feet AGL
Weather: automated observation with no human augmentation;
there may or may not be significant weather present at this time

METAR text: KMNH 220232Z AUTO 20007KT 10SM CLR 20/07 A3029 RMK AO2
Conditions at: KMNH (MONUMENT/ELBERT , CO, US) observed 0232 UTC 22 July 2014
Temperature: 20.0°C (68°F)
Dewpoint: 7.0°C (45°F) [RH = 43%]
Pressure (altimeter): 30.29 inches Hg (1025.8 mb)
Winds: from the SSW (200 degrees) at 8 MPH (7 knots; 3.6 m/s)
Visibility: 10 or more miles (16+ km)
Ceiling: at least 12,000 feet AGL
Clouds: sky clear below 12,000 feet AGL
Weather: automated observation with no human augmentation;
there may or may not be significant weather present at this time

METAR text: KMNH 220213Z AUTO 21006KT 10SM CLR 20/07 A3029 RMK AO2
Conditions at: KMNH (MONUMENT/ELBERT , CO, US) observed 0213 UTC 22 July 2014
Temperature: 20.0°C (68°F)
Dewpoint: 7.0°C (45°F) [RH = 43%]
Pressure (altimeter): 30.29 inches Hg (1025.8 mb)
Winds: from the SSW (210 degrees) at 7 MPH (6 knots; 3.1 m/s)
Visibility: 10 or more miles (16+ km)
Ceiling: at least 12,000 feet AGL
Clouds: sky clear below 12,000 feet AGL
Weather: automated observation with no human augmentation;
there may or may not be significant weather present at this time

METAR text: KMNH 220153Z AUTO 21006KT 10SM CLR 21/07 A3029 RMK AO2
Conditions at: KMNH (MONUMENT/ELBERT , CO, US) observed 0153 UTC 22 July 2014
Temperature: 21.0°C (70°F)
Dewpoint: 7.0°C (45°F) [RH = 40%]
Pressure (altimeter): 30.29 inches Hg (1025.8 mb)
Winds: from the SSW (210 degrees) at 7 MPH (6 knots; 3.1 m/s)
Visibility: 10 or more miles (16+ km)
Ceiling: at least 12,000 feet AGL
Clouds: sky clear below 12,000 feet AGL
Weather: automated observation with no human augmentation;
there may or may not be significant weather present at this time

METAR text: KMNH 220133Z AUTO 20007KT 10SM CLR 22/06 A3029 RMK AO2
Conditions at: KMNH (MONUMENT/ELBERT , CO, US) observed 0133 UTC 22 July 2014
Temperature: 22.0°C (72°F)
Dewpoint: 6.0°C (43°F) [RH = 35%]
Pressure (altimeter): 30.29 inches Hg (1025.8 mb)
Winds: from the SSW (200 degrees) at 8 MPH (7 knots; 3.6 m/s)
Visibility: 10 or more miles (16+ km)
Ceiling: at least 12,000 feet AGL
Clouds: sky clear below 12,000 feet AGL
Weather: automated observation with no human augmentation;
there may or may not be significant weather present at this time

METAR text: KMNH 220112Z AUTO 21007KT 10SM CLR 22/07 A3030 RMK AO2
Conditions at: KMNH (MONUMENT/ELBERT , CO, US) observed 0112 UTC 22 July 2014
Temperature: 22.0°C (72°F)
Dewpoint: 7.0°C (45°F) [RH = 38%]
Pressure (altimeter): 30.30 inches Hg (1026.2 mb)
Winds: from the SSW (210 degrees) at 8 MPH (7 knots; 3.6 m/s)
Visibility: 10 or more miles (16+ km)
Ceiling: at least 12,000 feet AGL
Clouds: sky clear below 12,000 feet AGL
Weather: automated observation with no human augmentation;
there may or may not be significant weather present at this time

METAR text: KMNH 220053Z AUTO 18007KT 10SM CLR 24/05 A3029 RMK AO2
Conditions at: KMNH (MONUMENT/ELBERT , CO, US) observed 0053 UTC 22 July 2014
Temperature: 24.0°C (75°F)
Dewpoint: 5.0°C (41°F) [RH = 29%]
Pressure (altimeter): 30.29 inches Hg (1025.8 mb)
Winds: from the S (180 degrees) at 8 MPH (7 knots; 3.6 m/s)
Visibility: 10 or more miles (16+ km)
Ceiling: at least 12,000 feet AGL
Clouds: sky clear below 12,000 feet AGL
Weather: automated observation with no human augmentation;
there may or may not be significant weather present at this time

METAR text: KMNH 220032Z AUTO 17011KT 10SM CLR 27/04 A3029 RMK AO2
Conditions at: KMNH (MONUMENT/ELBERT , CO, US) observed 0032 UTC 22 July 2014
Temperature: 27.0°C (81°F)
Dewpoint: 4.0°C (39°F) [RH = 23%]
Pressure (altimeter): 30.29 inches Hg (1025.8 mb)
Winds: from the S (170 degrees) at 13 MPH (11 knots; 5.7 m/s)
Visibility: 10 or more miles (16+ km)
Ceiling: at least 12,000 feet AGL
Clouds: sky clear below 12,000 feet AGL
Weather: automated observation with no human augmentation;
there may or may not be significant weather present at this time

METAR text: KMNH 220013Z AUTO 15006KT 10SM CLR 28/03 A3028 RMK AO2
Conditions at: KMNH (MONUMENT/ELBERT , CO, US) observed 0013 UTC 22 July 2014
Temperature: 28.0°C (82°F)
Dewpoint: 3.0°C (37°F) [RH = 20%]
Pressure (altimeter): 30.28 inches Hg (1025.5 mb)
Winds: from the SSE (150 degrees) at 7 MPH (6 knots; 3.1 m/s)
Visibility: 10 or more miles (16+ km)
Ceiling: at least 12,000 feet AGL
Clouds: sky clear below 12,000 feet AGL
Weather: automated observation with no human augmentation;
there may or may not be significant weather present at this time

METAR text: KMNH 212353Z AUTO 14010KT 10SM CLR 28/03 A3028 RMK AO2
Conditions at: KMNH (MONUMENT/ELBERT , CO, US) observed 2353 UTC 21 July 2014
Temperature: 28.0°C (82°F)
Dewpoint: 3.0°C (37°F) [RH = 20%]
Pressure (altimeter): 30.28 inches Hg (1025.5 mb)
Winds: from the SE (140 degrees) at 12 MPH (10 knots; 5.2 m/s)
Visibility: 10 or more miles (16+ km)
Ceiling: at least 12,000 feet AGL
Clouds: sky clear below 12,000 feet AGL
Weather: automated observation with no human augmentation;
there may or may not be significant weather present at this time

METAR text: KMNH 212333Z AUTO 15008G16KT 10SM CLR 28/03 A3028 RMK AO2
Conditions at: KMNH (MONUMENT/ELBERT , CO, US) observed 2333 UTC 21 July 2014
Temperature: 28.0°C (82°F)
Dewpoint: 3.0°C (37°F) [RH = 20%]
Pressure (altimeter): 30.28 inches Hg (1025.5 mb)
Winds: from the SSE (150 degrees) at 9 MPH (8 knots; 4.2 m/sgusting to 18 MPH (16 knots; 8.3 m/s)
Visibility: 10 or more miles (16+ km)
Ceiling: at least 12,000 feet AGL
Clouds: sky clear below 12,000 feet AGL
Weather: automated observation with no human augmentation;
there may or may not be significant weather present at this time

METAR text: KMNH 212313Z AUTO 14009KT 10SM CLR 29/02 A3029 RMK AO2
Conditions at: KMNH (MONUMENT/ELBERT , CO, US) observed 2313 UTC 21 July 2014
Temperature: 29.0°C (84°F)
Dewpoint: 2.0°C (36°F) [RH = 18%]
Pressure (altimeter): 30.29 inches Hg (1025.8 mb)
Winds: from the SE (140 degrees) at 10 MPH (9 knots; 4.7 m/s)
Visibility: 10 or more miles (16+ km)
Ceiling: at least 12,000 feet AGL
Clouds: sky clear below 12,000 feet AGL
Weather: automated observation with no human augmentation;
there may or may not be significant weather present at this time

METAR text: KMNH 212252Z AUTO 12009KT 10SM CLR 29/02 A3029 RMK AO2
Conditions at: KMNH (MONUMENT/ELBERT , CO, US) observed 2252 UTC 21 July 2014
Temperature: 29.0°C (84°F)
Dewpoint: 2.0°C (36°F) [RH = 18%]
Pressure (altimeter): 30.29 inches Hg (1025.8 mb)
Winds: from the ESE (120 degrees) at 10 MPH (9 knots; 4.7 m/s)
Visibility: 10 or more miles (16+ km)
Ceiling: at least 12,000 feet AGL
Clouds: sky clear below 12,000 feet AGL
Weather: automated observation with no human augmentation;
there may or may not be significant weather present at this time

METAR text: KMNH 212233Z AUTO 13010KT 10SM CLR 28/03 A3029 RMK AO2
Conditions at: KMNH (MONUMENT/ELBERT , CO, US) observed 2233 UTC 21 July 2014
Temperature: 28.0°C (82°F)
Dewpoint: 3.0°C (37°F) [RH = 20%]
Pressure (altimeter): 30.29 inches Hg (1025.8 mb)
Winds: from the SE (130 degrees) at 12 MPH (10 knots; 5.2 m/s)
Visibility: 10 or more miles (16+ km)
Ceiling: at least 12,000 feet AGL
Clouds: sky clear below 12,000 feet AGL
Weather: automated observation with no human augmentation;
there may or may not be significant weather present at this time

METAR text: KMNH 212213Z AUTO 14006KT 10SM CLR 28/03 A3029 RMK AO2
Conditions at: KMNH (MONUMENT/ELBERT , CO, US) observed 2213 UTC 21 July 2014
Temperature: 28.0°C (82°F)
Dewpoint: 3.0°C (37°F) [RH = 20%]
Pressure (altimeter): 30.29 inches Hg (1025.8 mb)
Winds: from the SE (140 degrees) at 7 MPH (6 knots; 3.1 m/s)
Visibility: 10 or more miles (16+ km)
Ceiling: at least 12,000 feet AGL
Clouds: sky clear below 12,000 feet AGL
Weather: automated observation with no human augmentation;
there may or may not be significant weather present at this time

METAR text: KMNH 212153Z AUTO 19011G20KT 120V200 10SM CLR 29/02 A3030 RMK AO2
Conditions at: KMNH (MONUMENT/ELBERT , CO, US) observed 2153 UTC 21 July 2014
Temperature: 29.0°C (84°F)
Dewpoint: 2.0°C (36°F) [RH = 18%]
Pressure (altimeter): 30.30 inches Hg (1026.2 mb)
Winds: from the S (190 degrees) at 13 MPH (11 knots; 5.7 m/sgusting to 23 MPH (20 knots; 10.4 m/s)
Visibility: 10 or more miles (16+ km)
Ceiling: at least 12,000 feet AGL
Clouds: sky clear below 12,000 feet AGL
Weather: automated observation with no human augmentation;
there may or may not be significant weather present at this time

METAR text: KMNH 212133Z AUTO 35006G14KT 10SM SCT110 29/01 A3030 RMK AO2
Conditions at: KMNH (MONUMENT/ELBERT , CO, US) observed 2133 UTC 21 July 2014
Temperature: 29.0°C (84°F)
Dewpoint: 1.0°C (34°F) [RH = 16%]
Pressure (altimeter): 30.30 inches Hg (1026.2 mb)
Winds: from the N (350 degrees) at 7 MPH (6 knots; 3.1 m/sgusting to 16 MPH (14 knots; 7.3 m/s)
Visibility: 10 or more miles (16+ km)
Ceiling: at least 12,000 feet AGL
Clouds: scattered clouds at 11000 feet AGL
Weather: automated observation with no human augmentation;
there may or may not be significant weather present at this time

METAR text: KMNH 212113Z AUTO 33007KT 10SM CLR 27/02 A3030 RMK AO2
Conditions at: KMNH (MONUMENT/ELBERT , CO, US) observed 2113 UTC 21 July 2014
Temperature: 27.0°C (81°F)
Dewpoint: 2.0°C (36°F) [RH = 20%]
Pressure (altimeter): 30.30 inches Hg (1026.2 mb)
Winds: from the NNW (330 degrees) at 8 MPH (7 knots; 3.6 m/s)
Visibility: 10 or more miles (16+ km)
Ceiling: at least 12,000 feet AGL
Clouds: sky clear below 12,000 feet AGL
Weather: automated observation with no human augmentation;
there may or may not be significant weather present at this time

METAR text: KMNH 212053Z AUTO 36005KT 10SM CLR 28/02 A3029 RMK AO2
Conditions at: KMNH (MONUMENT/ELBERT , CO, US) observed 2053 UTC 21 July 2014
Temperature: 28.0°C (82°F)
Dewpoint: 2.0°C (36°F) [RH = 19%]
Pressure (altimeter): 30.29 inches Hg (1025.8 mb)
Winds: from the N (360 degrees) at 6 MPH (5 knots; 2.6 m/s)
Visibility: 10 or more miles (16+ km)
Ceiling: at least 12,000 feet AGL
Clouds: sky clear below 12,000 feet AGL
Weather: automated observation with no human augmentation;
there may or may not be significant weather present at this time

METAR text: KMNH 212033Z AUTO 00000KT 10SM CLR 29/01 A3029 RMK AO2
Conditions at: KMNH (MONUMENT/ELBERT , CO, US) observed 2033 UTC 21 July 2014
Temperature: 29.0°C (84°F)
Dewpoint: 1.0°C (34°F) [RH = 16%]
Pressure (altimeter): 30.29 inches Hg (1025.8 mb)
Winds: calm
Visibility: 10 or more miles (16+ km)
Ceiling: at least 12,000 feet AGL
Clouds: sky clear below 12,000 feet AGL
Weather: automated observation with no human augmentation;
there may or may not be significant weather present at this time

METAR text: KMNH 212013Z AUTO 33004KT 10SM CLR 28/02 A3030 RMK AO2
Conditions at: KMNH (MONUMENT/ELBERT , CO, US) observed 2013 UTC 21 July 2014
Temperature: 28.0°C (82°F)
Dewpoint: 2.0°C (36°F) [RH = 19%]
Pressure (altimeter): 30.30 inches Hg (1026.2 mb)
Winds: from the NNW (330 degrees) at 5 MPH (4 knots; 2.1 m/s)
Visibility: 10 or more miles (16+ km)
Ceiling: at least 12,000 feet AGL
Clouds: sky clear below 12,000 feet AGL
Weather: automated observation with no human augmentation;
there may or may not be significant weather present at this time

METAR text: KMNH 211953Z AUTO 35008KT 10SM CLR 30/01 A3030 RMK AO2
Conditions at: KMNH (MONUMENT/ELBERT , CO, US) observed 1953 UTC 21 July 2014
Temperature: 30.0°C (86°F)
Dewpoint: 1.0°C (34°F) [RH = 15%]
Pressure (altimeter): 30.30 inches Hg (1026.2 mb)
Winds: from the N (350 degrees) at 9 MPH (8 knots; 4.2 m/s)
Visibility: 10 or more miles (16+ km)
Ceiling: at least 12,000 feet AGL
Clouds: sky clear below 12,000 feet AGL
Weather: automated observation with no human augmentation;
there may or may not be significant weather present at this time

METAR text: KMNH 211933Z AUTO 01006KT 10SM CLR 28/01 A3030 RMK AO2
Conditions at: KMNH (MONUMENT/ELBERT , CO, US) observed 1933 UTC 21 July 2014
Temperature: 28.0°C (82°F)
Dewpoint: 1.0°C (34°F) [RH = 17%]
Pressure (altimeter): 30.30 inches Hg (1026.2 mb)
Winds: from the N (10 degrees) at 7 MPH (6 knots; 3.1 m/s)
Visibility: 10 or more miles (16+ km)
Ceiling: at least 12,000 feet AGL
Clouds: sky clear below 12,000 feet AGL
Weather: automated observation with no human augmentation;
there may or may not be significant weather present at this time

METAR text: KMNH 211913Z AUTO 28005KT 10SM CLR 28/01 A3031 RMK AO2
Conditions at: KMNH (MONUMENT/ELBERT , CO, US) observed 1913 UTC 21 July 2014
Temperature: 28.0°C (82°F)
Dewpoint: 1.0°C (34°F) [RH = 17%]
Pressure (altimeter): 30.31 inches Hg (1026.5 mb)
Winds: from the W (280 degrees) at 6 MPH (5 knots; 2.6 m/s)
Visibility: 10 or more miles (16+ km)
Ceiling: at least 12,000 feet AGL
Clouds: sky clear below 12,000 feet AGL
Weather: automated observation with no human augmentation;
there may or may not be significant weather present at this time

METAR text: KMNH 211853Z AUTO 28006KT 10SM CLR 27/02 A3032 RMK AO2
Conditions at: KMNH (MONUMENT/ELBERT , CO, US) observed 1853 UTC 21 July 2014
Temperature: 27.0°C (81°F)
Dewpoint: 2.0°C (36°F) [RH = 20%]
Pressure (altimeter): 30.32 inches Hg (1026.8 mb)
Winds: from the W (280 degrees) at 7 MPH (6 knots; 3.1 m/s)
Visibility: 10 or more miles (16+ km)
Ceiling: at least 12,000 feet AGL
Clouds: sky clear below 12,000 feet AGL
Weather: automated observation with no human augmentation;
there may or may not be significant weather present at this time

METAR text: KMNH 211832Z AUTO 33006KT 10SM CLR 29/02 A3031 RMK AO2
Conditions at: KMNH (MONUMENT/ELBERT , CO, US) observed 1832 UTC 21 July 2014
Temperature: 29.0°C (84°F)
Dewpoint: 2.0°C (36°F) [RH = 18%]
Pressure (altimeter): 30.31 inches Hg (1026.5 mb)
Winds: from the NNW (330 degrees) at 7 MPH (6 knots; 3.1 m/s)
Visibility: 10 or more miles (16+ km)
Ceiling: at least 12,000 feet AGL
Clouds: sky clear below 12,000 feet AGL
Weather: automated observation with no human augmentation;
there may or may not be significant weather present at this time

METAR text: KMNH 211813Z AUTO 28006KT 220V300 10SM CLR 29/01 A3031 RMK AO2
Conditions at: KMNH (MONUMENT/ELBERT , CO, US) observed 1813 UTC 21 July 2014
Temperature: 29.0°C (84°F)
Dewpoint: 1.0°C (34°F) [RH = 16%]
Pressure (altimeter): 30.31 inches Hg (1026.5 mb)
Winds: from the W (280 degrees) at 7 MPH (6 knots; 3.1 m/s)
Visibility: 10 or more miles (16+ km)
Ceiling: at least 12,000 feet AGL
Clouds: sky clear below 12,000 feet AGL
Weather: automated observation with no human augmentation;
there may or may not be significant weather present at this time

METAR text: KMNH 211753Z AUTO 30005KT 10SM CLR 28/00 A3031 RMK AO2
Conditions at: KMNH (MONUMENT/ELBERT , CO, US) observed 1753 UTC 21 July 2014
Temperature: 28.0°C (82°F)
Dewpoint: 0.0°C (32°F) [RH = 16%]
Pressure (altimeter): 30.31 inches Hg (1026.5 mb)
Winds: from the WNW (300 degrees) at 6 MPH (5 knots; 2.6 m/s)
Visibility: 10 or more miles (16+ km)
Ceiling: at least 12,000 feet AGL
Clouds: sky clear below 12,000 feet AGL
Weather: automated observation with no human augmentation;
there may or may not be significant weather present at this time

METAR text: KMNH 211733Z AUTO 29008KT 10SM CLR 28/01 A3031 RMK AO2
Conditions at: KMNH (MONUMENT/ELBERT , CO, US) observed 1733 UTC 21 July 2014
Temperature: 28.0°C (82°F)
Dewpoint: 1.0°C (34°F) [RH = 17%]
Pressure (altimeter): 30.31 inches Hg (1026.5 mb)
Winds: from the WNW (290 degrees) at 9 MPH (8 knots; 4.2 m/s)
Visibility: 10 or more miles (16+ km)
Ceiling: at least 12,000 feet AGL
Clouds: sky clear below 12,000 feet AGL
Weather: automated observation with no human augmentation;
there may or may not be significant weather present at this time

METAR text: KMNH 211712Z AUTO 27010KT 10SM CLR 27/03 A3031 RMK AO2
Conditions at: KMNH (MONUMENT/ELBERT , CO, US) observed 1712 UTC 21 July 2014
Temperature: 27.0°C (81°F)
Dewpoint: 3.0°C (37°F) [RH = 21%]
Pressure (altimeter): 30.31 inches Hg (1026.5 mb)
Winds: from the W (270 degrees) at 12 MPH (10 knots; 5.2 m/s)
Visibility: 10 or more miles (16+ km)
Ceiling: at least 12,000 feet AGL
Clouds: sky clear below 12,000 feet AGL
Weather: automated observation with no human augmentation;
there may or may not be significant weather present at this time

METAR text: KMNH 211652Z AUTO 26008KT 10SM CLR 27/05 A3031 RMK AO2
Conditions at: KMNH (MONUMENT/ELBERT , CO, US) observed 1652 UTC 21 July 2014
Temperature: 27.0°C (81°F)
Dewpoint: 5.0°C (41°F) [RH = 24%]
Pressure (altimeter): 30.31 inches Hg (1026.5 mb)
Winds: from the W (260 degrees) at 9 MPH (8 knots; 4.2 m/s)
Visibility: 10 or more miles (16+ km)
Ceiling: at least 12,000 feet AGL
Clouds: sky clear below 12,000 feet AGL
Weather: automated observation with no human augmentation;
there may or may not be significant weather present at this time

METAR text: KMNH 211632Z AUTO 27009KT 10SM CLR 27/05 A3031 RMK AO2
Conditions at: KMNH (MONUMENT/ELBERT , CO, US) observed 1632 UTC 21 July 2014
Temperature: 27.0°C (81°F)
Dewpoint: 5.0°C (41°F) [RH = 24%]
Pressure (altimeter): 30.31 inches Hg (1026.5 mb)
Winds: from the W (270 degrees) at 10 MPH (9 knots; 4.7 m/s)
Visibility: 10 or more miles (16+ km)
Ceiling: at least 12,000 feet AGL
Clouds: sky clear below 12,000 feet AGL
Weather: automated observation with no human augmentation;
there may or may not be significant weather present at this time

METAR text: KMNH 211613Z AUTO 26010KT 10SM CLR 27/06 A3030 RMK AO2
Conditions at: KMNH (MONUMENT/ELBERT , CO, US) observed 1613 UTC 21 July 2014
Temperature: 27.0°C (81°F)
Dewpoint: 6.0°C (43°F) [RH = 26%]
Pressure (altimeter): 30.30 inches Hg (1026.2 mb)
Winds: from the W (260 degrees) at 12 MPH (10 knots; 5.2 m/s)
Visibility: 10 or more miles (16+ km)
Ceiling: at least 12,000 feet AGL
Clouds: sky clear below 12,000 feet AGL
Weather: automated observation with no human augmentation;
there may or may not be significant weather present at this time

METAR text: KMNH 211553Z AUTO 24004KT 10SM CLR 25/06 A3030 RMK AO2
Conditions at: KMNH (MONUMENT/ELBERT , CO, US) observed 1553 UTC 21 July 2014
Temperature: 25.0°C (77°F)
Dewpoint: 6.0°C (43°F) [RH = 30%]
Pressure (altimeter): 30.30 inches Hg (1026.2 mb)
Winds: from the WSW (240 degrees) at 5 MPH (4 knots; 2.1 m/s)
Visibility: 10 or more miles (16+ km)
Ceiling: at least 12,000 feet AGL
Clouds: sky clear below 12,000 feet AGL
Weather: automated observation with no human augmentation;
there may or may not be significant weather present at this time

METAR text: KMNH 211532Z AUTO 24005KT 10SM CLR 23/06 A3031 RMK AO2
Conditions at: KMNH (MONUMENT/ELBERT , CO, US) observed 1532 UTC 21 July 2014
Temperature: 23.0°C (73°F)
Dewpoint: 6.0°C (43°F) [RH = 33%]
Pressure (altimeter): 30.31 inches Hg (1026.5 mb)
Winds: from the WSW (240 degrees) at 6 MPH (5 knots; 2.6 m/s)
Visibility: 10 or more miles (16+ km)
Ceiling: at least 12,000 feet AGL
Clouds: sky clear below 12,000 feet AGL
Weather: automated observation with no human augmentation;
there may or may not be significant weather present at this time

METAR text: KMNH 211512Z AUTO 25007KT 10SM CLR 23/07 A3031 RMK AO2
Conditions at: KMNH (MONUMENT/ELBERT , CO, US) observed 1512 UTC 21 July 2014
Temperature: 23.0°C (73°F)
Dewpoint: 7.0°C (45°F) [RH = 36%]
Pressure (altimeter): 30.31 inches Hg (1026.5 mb)
Winds: from the WSW (250 degrees) at 8 MPH (7 knots; 3.6 m/s)
Visibility: 10 or more miles (16+ km)
Ceiling: at least 12,000 feet AGL
Clouds: sky clear below 12,000 feet AGL
Weather: automated observation with no human augmentation;
there may or may not be significant weather present at this time

METAR text: KMNH 211452Z AUTO 25008KT 10SM CLR 23/07 A3030 RMK AO2
Conditions at: KMNH (MONUMENT/ELBERT , CO, US) observed 1452 UTC 21 July 2014
Temperature: 23.0°C (73°F)
Dewpoint: 7.0°C (45°F) [RH = 36%]
Pressure (altimeter): 30.30 inches Hg (1026.2 mb)
Winds: from the WSW (250 degrees) at 9 MPH (8 knots; 4.2 m/s)
Visibility: 10 or more miles (16+ km)
Ceiling: at least 12,000 feet AGL
Clouds: sky clear below 12,000 feet AGL
Weather: automated observation with no human augmentation;
there may or may not be significant weather present at this time

METAR text: KMNH 211433Z AUTO 26008KT 10SM CLR 23/07 A3030 RMK AO2
Conditions at: KMNH (MONUMENT/ELBERT , CO, US) observed 1433 UTC 21 July 2014
Temperature: 23.0°C (73°F)
Dewpoint: 7.0°C (45°F) [RH = 36%]
Pressure (altimeter): 30.30 inches Hg (1026.2 mb)
Winds: from the W (260 degrees) at 9 MPH (8 knots; 4.2 m/s)
Visibility: 10 or more miles (16+ km)
Ceiling: at least 12,000 feet AGL
Clouds: sky clear below 12,000 feet AGL
Weather: automated observation with no human augmentation;
there may or may not be significant weather present at this time

METAR text: KMNH 211413Z AUTO 25006KT 10SM CLR 22/07 A3030 RMK AO2
Conditions at: KMNH (MONUMENT/ELBERT , CO, US) observed 1413 UTC 21 July 2014
Temperature: 22.0°C (72°F)
Dewpoint: 7.0°C (45°F) [RH = 38%]
Pressure (altimeter): 30.30 inches Hg (1026.2 mb)
Winds: from the WSW (250 degrees) at 7 MPH (6 knots; 3.1 m/s)
Visibility: 10 or more miles (16+ km)
Ceiling: at least 12,000 feet AGL
Clouds: sky clear below 12,000 feet AGL
Weather: automated observation with no human augmentation;
there may or may not be significant weather present at this time

METAR text: KMNH 211353Z AUTO 25006KT 10SM CLR 22/06 A3029 RMK AO2
Conditions at: KMNH (MONUMENT/ELBERT , CO, US) observed 1353 UTC 21 July 2014
Temperature: 22.0°C (72°F)
Dewpoint: 6.0°C (43°F) [RH = 35%]
Pressure (altimeter): 30.29 inches Hg (1025.8 mb)
Winds: from the WSW (250 degrees) at 7 MPH (6 knots; 3.1 m/s)
Visibility: 10 or more miles (16+ km)
Ceiling: at least 12,000 feet AGL
Clouds: sky clear below 12,000 feet AGL
Weather: automated observation with no human augmentation;
there may or may not be significant weather present at this time

METAR text: KMNH 211332Z AUTO 25006KT 10SM CLR 21/07 A3028 RMK AO2
Conditions at: KMNH (MONUMENT/ELBERT , CO, US) observed 1332 UTC 21 July 2014
Temperature: 21.0°C (70°F)
Dewpoint: 7.0°C (45°F) [RH = 40%]
Pressure (altimeter): 30.28 inches Hg (1025.5 mb)
Winds: from the WSW (250 degrees) at 7 MPH (6 knots; 3.1 m/s)
Visibility: 10 or more miles (16+ km)
Ceiling: at least 12,000 feet AGL
Clouds: sky clear below 12,000 feet AGL
Weather: automated observation with no human augmentation;
there may or may not be significant weather present at this time

METAR text: KMNH 211313Z AUTO 24007KT 10SM CLR 18/07 A3028 RMK AO2
Conditions at: KMNH (MONUMENT/ELBERT , CO, US) observed 1313 UTC 21 July 2014
Temperature: 18.0°C (64°F)
Dewpoint: 7.0°C (45°F) [RH = 49%]
Pressure (altimeter): 30.28 inches Hg (1025.5 mb)
Winds: from the WSW (240 degrees) at 8 MPH (7 knots; 3.6 m/s)
Visibility: 10 or more miles (16+ km)
Ceiling: at least 12,000 feet AGL
Clouds: sky clear below 12,000 feet AGL
Weather: automated observation with no human augmentation;
there may or may not be significant weather present at this time

METAR text: KMNH 211253Z AUTO 24007KT 10SM CLR 17/06 A3027 RMK AO2
Conditions at: KMNH (MONUMENT/ELBERT , CO, US) observed 1253 UTC 21 July 2014
Temperature: 17.0°C (63°F)
Dewpoint: 6.0°C (43°F) [RH = 48%]
Pressure (altimeter): 30.27 inches Hg (1025.1 mb)
Winds: from the WSW (240 degrees) at 8 MPH (7 knots; 3.6 m/s)
Visibility: 10 or more miles (16+ km)
Ceiling: at least 12,000 feet AGL
Clouds: sky clear below 12,000 feet AGL
Weather: automated observation with no human augmentation;
there may or may not be significant weather present at this time

METAR text: KMNH 211233Z AUTO 26007KT 10SM CLR 16/07 A3027 RMK AO2
Conditions at: KMNH (MONUMENT/ELBERT , CO, US) observed 1233 UTC 21 July 2014
Temperature: 16.0°C (61°F)
Dewpoint: 7.0°C (45°F) [RH = 55%]
Pressure (altimeter): 30.27 inches Hg (1025.1 mb)
Winds: from the W (260 degrees) at 8 MPH (7 knots; 3.6 m/s)
Visibility: 10 or more miles (16+ km)
Ceiling: at least 12,000 feet AGL
Clouds: sky clear below 12,000 feet AGL
Weather: automated observation with no human augmentation;
there may or may not be significant weather present at this time

METAR text: KMNH 211213Z AUTO 27008KT 10SM CLR 16/06 A3026 RMK AO2
Conditions at: KMNH (MONUMENT/ELBERT , CO, US) observed 1213 UTC 21 July 2014
Temperature: 16.0°C (61°F)
Dewpoint: 6.0°C (43°F) [RH = 51%]
Pressure (altimeter): 30.26 inches Hg (1024.8 mb)
Winds: from the W (270 degrees) at 9 MPH (8 knots; 4.2 m/s)
Visibility: 10 or more miles (16+ km)
Ceiling: at least 12,000 feet AGL
Clouds: sky clear below 12,000 feet AGL
Weather: automated observation with no human augmentation;
there may or may not be significant weather present at this time

METAR text: KMNH 211153Z AUTO 31007KT 10SM CLR 18/05 A3025 RMK AO2
Conditions at: KMNH (MONUMENT/ELBERT , CO, US) observed 1153 UTC 21 July 2014
Temperature: 18.0°C (64°F)
Dewpoint: 5.0°C (41°F) [RH = 42%]
Pressure (altimeter): 30.25 inches Hg (1024.5 mb)
Winds: from the NW (310 degrees) at 8 MPH (7 knots; 3.6 m/s)
Visibility: 10 or more miles (16+ km)
Ceiling: at least 12,000 feet AGL
Clouds: sky clear below 12,000 feet AGL
Weather: automated observation with no human augmentation;
there may or may not be significant weather present at this time

METAR text: KMNH 211133Z AUTO 24010G14KT 10SM CLR 17/05 A3024 RMK AO2
Conditions at: KMNH (MONUMENT/ELBERT , CO, US) observed 1133 UTC 21 July 2014
Temperature: 17.0°C (63°F)
Dewpoint: 5.0°C (41°F) [RH = 45%]
Pressure (altimeter): 30.24 inches Hg (1024.1 mb)
Winds: from the WSW (240 degrees) at 12 MPH (10 knots; 5.2 m/sgusting to 16 MPH (14 knots; 7.3 m/s)
Visibility: 10 or more miles (16+ km)
Ceiling: at least 12,000 feet AGL
Clouds: sky clear below 12,000 feet AGL
Weather: automated observation with no human augmentation;
there may or may not be significant weather present at this time

METAR text: KMNH 211113Z AUTO 23009KT 10SM CLR 17/05 A3024 RMK AO2
Conditions at: KMNH (MONUMENT/ELBERT , CO, US) observed 1113 UTC 21 July 2014
Temperature: 17.0°C (63°F)
Dewpoint: 5.0°C (41°F) [RH = 45%]
Pressure (altimeter): 30.24 inches Hg (1024.1 mb)
Winds: from the SW (230 degrees) at 10 MPH (9 knots; 4.7 m/s)
Visibility: 10 or more miles (16+ km)
Ceiling: at least 12,000 feet AGL
Clouds: sky clear below 12,000 feet AGL
Weather: automated observation with no human augmentation;
there may or may not be significant weather present at this time

METAR text: KMNH 211053Z AUTO 23008KT 10SM CLR 17/05 A3024 RMK AO2
Conditions at: KMNH (MONUMENT/ELBERT , CO, US) observed 1053 UTC 21 July 2014
Temperature: 17.0°C (63°F)
Dewpoint: 5.0°C (41°F) [RH = 45%]
Pressure (altimeter): 30.24 inches Hg (1024.1 mb)
Winds: from the SW (230 degrees) at 9 MPH (8 knots; 4.2 m/s)
Visibility: 10 or more miles (16+ km)
Ceiling: at least 12,000 feet AGL
Clouds: sky clear below 12,000 feet AGL
Weather: automated observation with no human augmentation;
there may or may not be significant weather present at this time

METAR text: KMNH 211033Z AUTO 22006KT 10SM CLR 17/05 A3024 RMK AO2
Conditions at: KMNH (MONUMENT/ELBERT , CO, US) observed 1033 UTC 21 July 2014
Temperature: 17.0°C (63°F)
Dewpoint: 5.0°C (41°F) [RH = 45%]
Pressure (altimeter): 30.24 inches Hg (1024.1 mb)
Winds: from the SW (220 degrees) at 7 MPH (6 knots; 3.1 m/s)
Visibility: 10 or more miles (16+ km)
Ceiling: at least 12,000 feet AGL
Clouds: sky clear below 12,000 feet AGL
Weather: automated observation with no human augmentation;
there may or may not be significant weather present at this time

METAR text: KMNH 211013Z AUTO 24007KT 10SM CLR 16/05 A3024 RMK AO2
Conditions at: KMNH (MONUMENT/ELBERT , CO, US) observed 1013 UTC 21 July 2014
Temperature: 16.0°C (61°F)
Dewpoint: 5.0°C (41°F) [RH = 48%]
Pressure (altimeter): 30.24 inches Hg (1024.1 mb)
Winds: from the WSW (240 degrees) at 8 MPH (7 knots; 3.6 m/s)
Visibility: 10 or more miles (16+ km)
Ceiling: at least 12,000 feet AGL
Clouds: sky clear below 12,000 feet AGL
Weather: automated observation with no human augmentation;
there may or may not be significant weather present at this time

METAR text: KMNH 210953Z AUTO 25008KT 10SM CLR 16/05 A3024 RMK AO2
Conditions at: KMNH (MONUMENT/ELBERT , CO, US) observed 0953 UTC 21 July 2014
Temperature: 16.0°C (61°F)
Dewpoint: 5.0°C (41°F) [RH = 48%]
Pressure (altimeter): 30.24 inches Hg (1024.1 mb)
Winds: from the WSW (250 degrees) at 9 MPH (8 knots; 4.2 m/s)
Visibility: 10 or more miles (16+ km)
Ceiling: at least 12,000 feet AGL
Clouds: sky clear below 12,000 feet AGL
Weather: automated observation with no human augmentation;
there may or may not be significant weather present at this time

METAR text: KMNH 210933Z AUTO 23006KT 10SM CLR 17/05 A3024 RMK AO2
Conditions at: KMNH (MONUMENT/ELBERT , CO, US) observed 0933 UTC 21 July 2014
Temperature: 17.0°C (63°F)
Dewpoint: 5.0°C (41°F) [RH = 45%]
Pressure (altimeter): 30.24 inches Hg (1024.1 mb)
Winds: from the SW (230 degrees) at 7 MPH (6 knots; 3.1 m/s)
Visibility: 10 or more miles (16+ km)
Ceiling: at least 12,000 feet AGL
Clouds: sky clear below 12,000 feet AGL
Weather: automated observation with no human augmentation;
there may or may not be significant weather present at this time

METAR text: KMNH 210913Z AUTO 25007KT 10SM CLR 16/06 A3023 RMK AO2
Conditions at: KMNH (MONUMENT/ELBERT , CO, US) observed 0913 UTC 21 July 2014
Temperature: 16.0°C (61°F)
Dewpoint: 6.0°C (43°F) [RH = 51%]
Pressure (altimeter): 30.23 inches Hg (1023.8 mb)
Winds: from the WSW (250 degrees) at 8 MPH (7 knots; 3.6 m/s)
Visibility: 10 or more miles (16+ km)
Ceiling: at least 12,000 feet AGL
Clouds: sky clear below 12,000 feet AGL
Weather: automated observation with no human augmentation;
there may or may not be significant weather present at this time

METAR text: KMNH 210854Z AUTO 23008KT 10SM CLR 16/06 A3023 RMK AO2
Conditions at: KMNH (MONUMENT/ELBERT , CO, US) observed 0854 UTC 21 July 2014
Temperature: 16.0°C (61°F)
Dewpoint: 6.0°C (43°F) [RH = 51%]
Pressure (altimeter): 30.23 inches Hg (1023.8 mb)
Winds: from the SW (230 degrees) at 9 MPH (8 knots; 4.2 m/s)
Visibility: 10 or more miles (16+ km)
Ceiling: at least 12,000 feet AGL
Clouds: sky clear below 12,000 feet AGL
Weather: automated observation with no human augmentation;
there may or may not be significant weather present at this time

METAR text: KMNH 210834Z AUTO 21008KT 10SM CLR 17/05 A3023 RMK AO2
Conditions at: KMNH (MONUMENT/ELBERT , CO, US) observed 0834 UTC 21 July 2014
Temperature: 17.0°C (63°F)
Dewpoint: 5.0°C (41°F) [RH = 45%]
Pressure (altimeter): 30.23 inches Hg (1023.8 mb)
Winds: from the SSW (210 degrees) at 9 MPH (8 knots; 4.2 m/s)
Visibility: 10 or more miles (16+ km)
Ceiling: at least 12,000 feet AGL
Clouds: sky clear below 12,000 feet AGL
Weather: automated observation with no human augmentation;
there may or may not be significant weather present at this time

METAR text: KMNH 210814Z AUTO 22008KT 10SM CLR 16/06 A3024 RMK AO2
Conditions at: KMNH (MONUMENT/ELBERT , CO, US) observed 0814 UTC 21 July 2014
Temperature: 16.0°C (61°F)
Dewpoint: 6.0°C (43°F) [RH = 51%]
Pressure (altimeter): 30.24 inches Hg (1024.1 mb)
Winds: from the SW (220 degrees) at 9 MPH (8 knots; 4.2 m/s)
Visibility: 10 or more miles (16+ km)
Ceiling: at least 12,000 feet AGL
Clouds: sky clear below 12,000 feet AGL
Weather: automated observation with no human augmentation;
there may or may not be significant weather present at this time

METAR text: KMNH 210754Z AUTO 21006KT 10SM CLR 16/06 A3024 RMK AO2
Conditions at: KMNH (MONUMENT/ELBERT , CO, US) observed 0754 UTC 21 July 2014
Temperature: 16.0°C (61°F)
Dewpoint: 6.0°C (43°F) [RH = 51%]
Pressure (altimeter): 30.24 inches Hg (1024.1 mb)
Winds: from the SSW (210 degrees) at 7 MPH (6 knots; 3.1 m/s)
Visibility: 10 or more miles (16+ km)
Ceiling: at least 12,000 feet AGL
Clouds: sky clear below 12,000 feet AGL
Weather: automated observation with no human augmentation;
there may or may not be significant weather present at this time

METAR text: KMNH 210734Z AUTO 23008KT 10SM CLR 16/07 A3024 RMK AO2
Conditions at: KMNH (MONUMENT/ELBERT , CO, US) observed 0734 UTC 21 July 2014
Temperature: 16.0°C (61°F)
Dewpoint: 7.0°C (45°F) [RH = 55%]
Pressure (altimeter): 30.24 inches Hg (1024.1 mb)
Winds: from the SW (230 degrees) at 9 MPH (8 knots; 4.2 m/s)
Visibility: 10 or more miles (16+ km)
Ceiling: at least 12,000 feet AGL
Clouds: sky clear below 12,000 feet AGL
Weather: automated observation with no human augmentation;
there may or may not be significant weather present at this time

METAR text: KMNH 210714Z AUTO 22009KT 10SM CLR 17/06 A3024 RMK AO2
Conditions at: KMNH (MONUMENT/ELBERT , CO, US) observed 0714 UTC 21 July 2014
Temperature: 17.0°C (63°F)
Dewpoint: 6.0°C (43°F) [RH = 48%]
Pressure (altimeter): 30.24 inches Hg (1024.1 mb)
Winds: from the SW (220 degrees) at 10 MPH (9 knots; 4.7 m/s)
Visibility: 10 or more miles (16+ km)
Ceiling: at least 12,000 feet AGL
Clouds: sky clear below 12,000 feet AGL
Weather: automated observation with no human augmentation;
there may or may not be significant weather present at this time